Terminal Aerodrome Forecast
Issued by NWS Norman, OK

Home | Current Version | Previous Version | Text Only | Print | Product List | Glossary On
Versions: 1 2 3 4 5 6 7 8 9 10 11 12 13 14 15 16 17 18 19 20 21 22 23 24 25
000
FTUS44 KOUN 181120
TAFOKC
TAF
KOKC 181120Z 1812/1912 15003KT 1SM -DZ BR VV002
      TEMPO 1812/1815 3/4SM -DZ BR
     FM182000 04004KT 3SM BR OVC004
     FM190200 04007KT 3/4SM BR OVC004=

USA.gov is the U.S. government's official web portal to all federal, state and local government web resources and services.